Meteo Giornale » Osservazioni meteo Brasile » Teresina Aeroporto
ore: 06:00 - Osservazioni Meteo Teresina Aeroporto
Lat. 5° 3' S Lon. 42° 49' W Alt. 69 metri s.l.m.
25 °C
Sereno
Temp. 24 Ore
25 °C
37 °C
Nord
0 Km/h
Dew point 23 °C
Umidità 88 %
Visibilità 10 Km
Il sole sorge alle ore 05:50
Il sole tramonta alle ore 17:51
| Data e Ora | Cielo e Fenomeni | T °C | DP °C | Um. % | Pres. hPa | Vis. km | Vento km/h | |
|---|---|---|---|---|---|---|---|---|
| Oggi h: 06:00 | Sereno | 25 | 23 | 88 | 1012 | 10 | N 0 | |
| Oggi h: 05:00 | Sereno | 25 | 23 | 88 | 1011 | 10 | N 0 | |
| Oggi h: 04:00 | Sereno | 26 | 23 | 83 | 1011 | 10 | N 5.5 | |
| Oggi h: 03:00 | Sereno | 26 | 23 | 83 | 1011 | 10 | N 9.3 | |
| Oggi h: 02:00 | Sereno | 27 | 22 | 74 | 1011 | 10 | N 11.1 | |
| Oggi h: 01:00 | Sereno | 27 | 22 | 74 | 1011 | 10 | N 11.1 | |
| Oggi h: 00:00 | Sereno | 28 | 22 | 69 | 1012 | 10 | N 14.8 | |
| Ieri h: 23:00 | Sereno | 30 | 20 | 55 | 1012 | 10 | N 11.1 | |
| Ieri h: 22:00 | Sereno | 31 | 20 | 52 | 1012 | 10 | N 3.7 | |
| Ieri h: 21:00 | Sereno | 31 | 20 | 52 | 1011 | 10 | N 5.5 | |
| Ieri h: 20:00 | Sereno | 33 | 18 | 41 | 1010 | 10 | N 5.5 | |
| Ieri h: 19:00 | Poco Nuvoloso | 34 | 18 | 38 | 1009 | 10 | N 3.7 | |
| Ieri h: 18:00 | Poco Nuvoloso | 36 | 18 | 34 | 1009 | 10 | E/NE 7.4 | |
| Ieri h: 17:00 | Poco Nuvoloso | 37 | 17 | 30 | 1008 | 10 | NE 11.1 | |
| Ieri h: 16:00 | Nuvoloso | 37 | 17 | 30 | 1008 | 10 | E/NE 11.1 | |
| Ieri h: 15:00 | Nuvoloso | 37 | 18 | 32 | 1009 | 10 | S/SE 9.3 | |
| Ieri h: 14:00 | Molto Nuvoloso | 36 | 18 | 34 | 1010 | 10 | E/SE 11.1 | |
| Ieri h: 13:00 | Nuvoloso | 35 | 19 | 39 | 1011 | 10 | N 9.3 | |
| Ieri h: 12:00 | Nuvoloso | 34 | 20 | 43 | 1012 | 10 | SE 14.8 | |
| Ieri h: 11:00 | Nuvoloso | 34 | 19 | 41 | 1013 | 10 | E/SE 14.8 | |
| Ieri h: 10:00 | Sereno | 32 | 19 | 46 | 1013 | 10 | E 14.8 | |
| Ieri h: 09:00 | Sereno | 31 | 20 | 52 | 1013 | 10 | SE 11.1 | |
| Ieri h: 08:00 | Sereno | 28 | 21 | 65 | 1013 | 10 | N 5.5 | |
| Ieri h: 07:00 | Sereno | 26 | 21 | 73 | 1012 | 10 | N 5.5 | |



